Milano, Italy

12:48 PM CEST del 27 Marzo 2017 (GMT +0200)
Malpensa | | Change Station

Alt. 692 ft 45.62 °N, 8.73 °E | Updated 28 minutes ago

Scattered Clouds
Nubi sparse
55 °F
Sembra 55 °F
N
7
Vento Variabile Vento da ESE

Oggi
Massima -- | Minima -- °F
--% Possibilità di precip.
Ieri
Massima -- | Minima -- °F
Precip. -- in
Pressione 30.33 in
Visibilità 6.2 miglia
Nuvole Nubi sparse 6000 ft
Punto di rugiada 30 °F
Umidità 38%
Piovosità 0.00 in
Spessore del manto nevoso Non disponibile.
7:14 AM 7:46 PM
Luna calante, 1% visible
METAR LIMC 271020Z 12006KT 080V190 9999 SCT060 13/M01 Q1027 NOSIG
Pressione 30.33 in
Visibilità 6.2 miglia
Nuvole Nubi sparse 6000 ft
Punto di rugiada 30 °F
Umidità 38%
Piovosità 0.00 in
Spessore del manto nevoso Non disponibile.
7:14 AM 7:46 PM
Luna calante, 1% visible
METAR LIMC 271020Z 12006KT 080V190 9999 SCT060 13/M01 Q1027 NOSIG

Get Severe Weather Alerts

Thanks for signing up!

Be on the lookout for a verification email in your inbox.

You'll start receiving the daily forecast at 8 AM.

×

10-Day Weather Forecast

×

Almanac

Astronomia

Mar. 27, 2017 Alba Tramonto
Ora attuale
Crepuscolo civile
Crepuscolo nautico
Crepuscolo astronomico
Luna
Estensione della luce visibile
Lunghezza del giorno
Tomorrow will be .
, % of the Moon is Illuminated

Gli estremi di oggi

Massime Regione Minime Regione

Community

WunderPhotos

Upload Photos

1,962,540 foto caricate!

WunderBlog® & News

Nearby

Qualità dell'aria

  Qualità dell'aria Indice AQ Inquinante
Not available.

Profondità neve

Stazione Profondità Altitudine

Attività sismica

Città  Distanza Mag. Data & Ora
Minimo Magnitudo Mostrato è 2.5.

Attività sismica

Città  Distanza Mag. Data & Ora
Minimo Magnitudo Mostrato è 2.5.

Temperature delle acque costiere

Località Temperatura

Stations

Stazioni meteo nelle vicinanze

Ubicazione della stazione Temp. Raffreddamento del vento Punto di rugiada Umidità Vento Precip. Alt. Aggiornato Tipo